Terminal Aerodrome Forecast
Issued by NWS Cleveland, OH

Home | Current Version | Previous Version | Graphics & Text | Print | Product List | Glossary On
Versions: 1 2 3 4 5 6 7 8 9 10 11 12 13 14 15 16 17 18 19 20 21 22
000
FTUS41 KCLE 161300 AAA
TAFMFD
TAF AMD
KMFD 161323Z 1613/1712 31006KT 5SM BR BKN004 OVC015
     FM161400 33006KT P6SM BKN015 OVC025
     FM161600 33006KT P6SM BKN035
     FM161800 31006KT P6SM SCT035
     FM170200 26003KT P6SM SKC
     FM170900 19003KT 4SM BR SKC=

USA.gov is the U.S. government's official web portal to all federal, state and local government web resources and services.